• Join FlightAware (Why Join?)
  • Login
  • US Flag 
02:47AM EDT


 

Airport Tracker/Info


-or-


 

Live Flight TrackerFlight Track Log ✈ N777NC ✈ 28-Jun-2013 ✈ KAGS - KATL

Flight Track Log - Related Links

Times and Time Zones

All times are in EDT time to prevent confusion due to time zone crossing. See the N777NC flight status page for this flight to view local times or setup timezone preferences in your user account.

Time Position Orientation Groundspeed Altitude Reporting Facility
EDT Latitude Longitude Course Direction KTS MPH feet Rate Location/Type
08:34AM 33.3128 -82.0528 239° Southwest 332 382 3,000  Level Atlanta Center
08:35AM 33.3014 -82.1300 260° West 289 333 4,000 480 Climbing Atlanta Center
08:36AM 33.2903 -82.2122 261° West 261 300 4,000 120 Level Atlanta Center
08:37AM 33.6968 -82.1484 337° Northwest  Level FlightAware Approximate
08:37AM 33.2808 -82.2944 262° West 255 293 4,300  Level Atlanta Center
08:38AM 33.6702 -82.2263 239° Southwest  Level FlightAware Approximate
08:38AM 33.2653 -82.3767 257° West 255 293 7,100  Level Atlanta Center
08:39AM 33.6322 -82.3025 239° Southwest  Level FlightAware Approximate
08:39AM 33.2539 -82.4614 261° West 255 293 9,100  Level Atlanta Center
08:40AM 33.2383 -82.5561 259° West 266 306 10,600 1,500 Climbing Atlanta Center
08:41AM 33.2167 -82.6658 257° West 309 356 12,200 1,920 Climbing Atlanta Center
08:42AM 33.2011 -82.7628 259° West 319 367 14,500 2,040 Climbing Atlanta Center
08:43AM 33.1853 -82.8647 260° West 314 361 16,300 1,260 Climbing Atlanta Center
08:44AM 33.1697 -82.9767 261° West 335 386 17,100 1,200 Climbing Atlanta Center
08:45AM 33.1436 -83.1011 256° West 359 413 18,800 1,500 Climbing Atlanta Center
08:46AM 33.1444 -83.2225 271° West 378 435 20,100 180 Climbing Atlanta Center
08:47AM 33.1431 -83.3417 269° West 389 448 19,200 -1,140 Descending Atlanta Center
08:48AM 33.1417 -83.4583 269° West 376 433 17,900 -2,040 Descending Atlanta Center
08:49AM 33.1442 -83.5675 272° West 344 396 15,200 -2,220 Descending Atlanta Center
08:50AM 33.1667 -83.6500 288° West 314 361 14,200 -1,500 Descending Atlanta TRACON
08:51AM 33.2000 -83.7333 296° West 290 334 12,700 -1,080 Descending Atlanta TRACON
08:52AM 33.2500 -83.8333 301° West 292 336 12,000 -1,200 Descending Atlanta TRACON
08:53AM 33.3000 -83.9000 312° West 275 316 10,300 -1,740 Descending Atlanta TRACON
08:54AM 33.3500 -83.9333 331° Northwest 282 325 8,700 -1,260 Descending Atlanta TRACON
08:55AM 33.4167 -83.9667 337° Northwest 262 302 8,000 -360 Descending Atlanta TRACON
08:56AM 33.5000 -83.9833 351° North 287 330 8,000 -720 Level Atlanta TRACON
08:57AM 33.5667 -84.0333 328° Northwest 268 308 6,600 -1,380 Descending Atlanta TRACON
08:58AM 33.6000 -84.1000 301° West 257 296 5,300 -1,380 Descending Atlanta TRACON
08:59AM 33.6167 -84.1667 287° West 238 274 4,000 -1,320 Descending Atlanta TRACON